Página principal
METAR-TAF:

METAR-TAF

Aeroportos :

Gibraltar, Gibraltar

Aeroporto de Gibraltar

latitude: 36-09N, longitude: 005-21W, altura: 5 m

Observação actual do tempo

O boletim foi feito há 21 minutos, às 14:50 UTC
Vento 6 kt de este
Temperatura 15°C
Humidade 67%
Pressão 1027 hPa
Visibilidade 10 km ou mais
sem nuvens abaixo de 1500 metros e sem cumulonimbus

METAR: LXGB 161450Z 08006KT CAVOK 15/09 Q1027 NOSIG

Hora: 16:11 (15:11 UTC)

Previsão

O boletim foi feito há 1 hora e 34 minutos, às 13:37 UTC
Previsão válida de 16 às 15 UTC a 16 às 22 UTC
Vento 4 kt de este
Visibilidade 10 km ou mais
Poucas nuvensa uma altura de 2500 ft

TAF: LXGB 161337Z 1615/1622 10004KT 9999 FEW025

Observações e previsões do tempo de mais de 4000 aeroportos (mensagens METAR e TAF).

As estações disponíveis são os pontos amarelos e vermelhos sobre o mapa.

Mova o rato sobre o mapa para ver o nome da estação.

Depois clique no ponto para visualizar as observações e previsões meteorológicas.

Para alterar o mapa : clique nos botões verdes com uma cruz preta para aumentar o zoom; no botão verde com uma pitada de zoom; ou nas setas verdes para mapas adjacentes.


METAR-TAF: